메인 페이지
METAR-TAF:

METAR-TAF

공항 :

Hutchinson, 캔자스, 미국

위도: 38-04-05N, 경도: 097-51-38W, 고도: 470m

현재 날씨관측

예보는 29분 전, 06:52시(UTC)에 발표되었습니다.
무풍
온도 12°C
습도 100%
기압 1019 hPa
시정: 16.1km
맑음

METAR: KHUT 230652Z AUTO 00000KT 10SM CLR 12/12 A3008 RMK AO2 SLP170 T01220117

시각: 02:21 (07:21 UTC)

예보

예보는 2 시간 1분 전, 05:20시(UTC)에 발표되었습니다.
예보 대상 시간: 23일 06시부터 24일 06시까지 (UTC)
5kt
시정: 10km
맑음
23일 0800시부터 (UTC)
kt
시정: 10km
맑음
일시적
23일 12시부터 23일 15시까지 (UTC)
시정: 8.0km
고도 2000ft 상공 구름 많음
박무
23일 1500시부터 (UTC)
6kt
시정: 10km
맑음

TAF: KHUT 230520Z 2306/2406 10005KT P6SM SKC FM230800 00000KT P6SM SKC TEMPO 2312/2315 5SM BR BKN020 FM231500 17006KT P6SM SKC

4,000개 이상의 공항 관측 자료 및 예보 (METAR 및 TAF 보고).

지도상에서 검색 가능한 기상관측소가 노란 점과 빨간 점으로 표시되어 있습니다.

기상관측소 명을 보려면 표시 위로 마우스를 이동하세요.

날씨 관측과 예보를 보려면 클릭하세요.

지도 변경 : 확대하려면 엑스 표시가 있는 녹색 버튼, 축소하려면 빼기 표시가 있는 녹색 버튼, 다음 페이지의 지도를 보려면 녹색 화살표를 클릭하세요.


METAR-TAF: